createdAt,value
2023-04-02T00:01:01.262Z,10.65
2023-04-02T00:04:22.100Z,9.25
2023-04-02T00:07:31.154Z,9.45
2023-04-02T00:10:48.631Z,8.75
2023-04-02T00:13:53.027Z,8.40
2023-04-02T00:17:01.928Z,7.85
2023-04-02T00:20:08.167Z,8.52
2023-04-02T00:23:14.825Z,8.00
2023-04-02T00:26:36.835Z,7.72
2023-04-02T00:29:54.221Z,7.50
2023-04-02T00:32:59.153Z,8.02
2023-04-02T00:36:07.970Z,7.00
2023-04-02T00:39:29.452Z,8.10
2023-04-02T00:42:35.937Z,7.07
2023-04-02T00:45:41.649Z,7.60
2023-04-02T00:49:10.821Z,8.07
2023-04-02T00:52:22.145Z,8.20
2023-04-02T00:55:40.372Z,8.15
2023-04-02T00:58:45.882Z,8.95
2023-04-02T01:02:17.328Z,8.93
2023-04-02T01:05:23.827Z,8.90
2023-04-02T01:08:52.752Z,8.32
2023-04-02T01:12:11.553Z,7.60
2023-04-02T01:15:30.958Z,9.30
2023-04-02T01:19:03.952Z,8.75
2023-04-02T01:22:20.349Z,6.60
2023-04-02T01:25:39.258Z,7.90
2023-04-02T01:29:13.906Z,8.02
2023-04-02T01:32:22.002Z,7.70
2023-04-02T01:35:31.189Z,9.30
2023-04-02T01:38:46.906Z,8.60
2023-04-02T01:42:01.549Z,7.95
2023-04-02T01:45:12.477Z,8.38
2023-04-02T01:48:30.091Z,8.88
2023-04-02T01:51:39.512Z,9.43
2023-04-02T01:54:47.727Z,9.05
2023-04-02T01:57:54.337Z,8.10
2023-04-02T02:01:20.740Z,9.18
2023-04-02T02:04:29.095Z,8.02
2023-04-02T02:07:34.571Z,8.65
2023-04-02T02:10:39.801Z,9.07
2023-04-02T02:14:34.411Z,9.40
2023-04-02T02:17:39.221Z,8.98
2023-04-02T02:20:44.081Z,10.18
2023-04-02T02:23:48.571Z,10.57
2023-04-02T02:27:29.335Z,11.27
2023-04-02T02:31:22.813Z,10.15
2023-04-02T02:34:39.300Z,11.20
2023-04-02T02:37:50.739Z,11.90
2023-04-02T02:41:04.356Z,11.57
2023-04-02T02:44:08.800Z,10.52
2023-04-02T02:47:19.603Z,10.15
2023-04-02T02:50:31.256Z,10.32
2023-04-02T02:53:50.614Z,9.90
2023-04-02T02:57:03.193Z,9.60
2023-04-02T03:00:11.856Z,9.07
2023-04-02T03:03:24.701Z,8.38
2023-04-02T03:06:34.033Z,8.35
2023-04-02T03:10:05.664Z,8.80
2023-04-02T03:13:35.602Z,8.50
2023-04-02T03:16:48.475Z,8.25
2023-04-02T03:20:19.628Z,8.90
2023-04-02T03:23:42.159Z,8.18
2023-04-02T03:26:58.923Z,8.18
2023-04-02T03:30:12.635Z,7.50
2023-04-02T03:33:25.758Z,7.25
2023-04-02T03:37:05.428Z,6.65
2023-04-02T03:40:28.202Z,7.47
2023-04-02T03:43:42.485Z,8.90
2023-04-02T03:46:58.935Z,10.13
2023-04-02T03:50:37.759Z,9.50
2023-04-02T03:53:44.426Z,10.80
2023-04-02T03:56:49.991Z,10.48
2023-04-02T04:00:27.343Z,11.15
2023-04-02T04:03:52.199Z,11.30
2023-04-02T04:07:00.604Z,9.68
2023-04-02T04:10:08.311Z,10.57
2023-04-02T04:13:21.008Z,9.68
2023-04-02T04:17:09.468Z,10.13
2023-04-02T04:20:25.871Z,8.40
2023-04-02T04:23:38.459Z,8.02
2023-04-02T04:27:05.058Z,9.45
2023-04-02T04:30:47.654Z,8.02
2023-04-02T04:34:05.078Z,8.80
2023-04-02T04:37:29.155Z,8.70
2023-04-02T04:40:42.139Z,7.18
2023-04-02T04:44:07.157Z,6.57
2023-04-02T04:47:31.147Z,6.15
2023-04-02T04:51:02.185Z,5.60
2023-04-02T04:54:14.204Z,5.25
2023-04-02T04:57:37.208Z,5.53
2023-04-02T05:01:23.057Z,5.25
2023-04-02T05:04:52.474Z,5.10
2023-04-02T05:08:27.063Z,5.05
2023-04-02T05:11:45.743Z,4.05
2023-04-02T05:15:01.682Z,4.47
2023-04-02T05:18:13.529Z,3.80
2023-04-02T05:21:39.204Z,3.90
2023-04-02T05:25:02.851Z,4.00
2023-04-02T05:28:25.728Z,3.90
2023-04-02T05:31:43.489Z,3.75
2023-04-02T05:34:55.405Z,3.47
2023-04-02T05:38:01.873Z,3.95
2023-04-02T05:41:20.976Z,2.80
2023-04-02T05:44:34.343Z,3.47
2023-04-02T05:47:43.679Z,3.00
2023-04-02T05:50:57.123Z,3.00
2023-04-02T05:54:15.748Z,2.97
2023-04-02T05:57:42.100Z,2.95
2023-04-02T06:01:07.792Z,2.78
2023-04-02T06:04:33.295Z,3.30
2023-04-02T06:07:54.914Z,3.35
2023-04-02T06:11:10.823Z,2.95
2023-04-02T06:14:17.455Z,2.78
2023-04-02T06:17:24.047Z,2.60
2023-04-02T06:20:28.756Z,2.85
2023-04-02T06:24:00.447Z,3.30
2023-04-02T06:27:10.254Z,3.00
2023-04-02T06:30:25.883Z,2.90
2023-04-02T06:33:31.178Z,2.80
2023-04-02T06:36:36.447Z,2.97
2023-04-02T06:39:44.923Z,2.78
2023-04-02T06:42:59.503Z,2.90
2023-04-02T06:46:35.961Z,3.38
2023-04-02T06:49:51.289Z,3.08
2023-04-02T06:53:01.373Z,2.73
2023-04-02T06:56:37.380Z,2.80
2023-04-02T06:59:42.706Z,2.47
2023-04-02T07:02:57.703Z,3.05
2023-04-02T07:06:03.405Z,2.50
2023-04-02T07:09:09.353Z,2.70
2023-04-02T07:12:25.440Z,3.05
2023-04-02T07:15:31.570Z,3.60
2023-04-02T07:18:36.887Z,2.72
2023-04-02T07:21:43.532Z,3.65
2023-04-02T07:24:48.362Z,3.08
2023-04-02T07:27:53.267Z,4.35
2023-04-02T07:30:58.206Z,3.85
2023-04-02T07:34:02.602Z,3.40
2023-04-02T07:37:07.677Z,3.05
2023-04-02T07:40:20.563Z,3.50
2023-04-02T07:43:25.098Z,3.50
2023-04-02T07:46:29.380Z,3.72
2023-04-02T07:49:33.508Z,3.80
2023-04-02T07:52:42.957Z,4.18
2023-04-02T07:55:53.076Z,4.00
2023-04-02T07:58:57.539Z,3.92
2023-04-02T08:02:02.825Z,3.90
2023-04-02T08:05:07.756Z,3.67
2023-04-02T08:08:12.116Z,4.05
2023-04-02T08:11:17.120Z,3.42
2023-04-02T08:14:21.764Z,4.15
2023-04-02T08:17:31.253Z,4.60
2023-04-02T08:20:36.476Z,3.67
2023-04-02T08:23:41.252Z,2.90
2023-04-02T08:26:47.510Z,3.15
2023-04-02T08:29:52.500Z,2.60
2023-04-02T08:32:57.091Z,3.30
2023-04-02T08:36:01.675Z,3.13
2023-04-02T08:39:11.762Z,3.40
2023-04-02T08:42:29.300Z,3.20
2023-04-02T08:46:01.692Z,4.38
2023-04-02T08:49:16.057Z,4.30
2023-04-02T08:52:36.653Z,4.88
2023-04-02T08:56:05.627Z,4.20
2023-04-02T08:59:38.857Z,4.25
2023-04-02T09:02:55.011Z,4.43
2023-04-02T09:06:01.664Z,4.03
2023-04-02T09:09:06.743Z,4.13
2023-04-02T09:12:26.867Z,4.25
2023-04-02T09:15:36.483Z,4.13
2023-04-02T09:18:43.047Z,3.20
2023-04-02T09:22:17.981Z,3.25
2023-04-02T09:28:37.687Z,3.20
2023-04-02T09:31:53.693Z,3.13
2023-04-02T09:35:27.240Z,3.67
2023-04-02T09:38:32.969Z,2.92
2023-04-02T09:41:37.564Z,2.90
2023-04-02T09:44:42.103Z,3.33
2023-04-02T09:47:47.031Z,3.30
2023-04-02T09:51:31.863Z,3.25
2023-04-02T09:54:41.553Z,2.55
2023-04-02T09:57:48.352Z,3.38
2023-04-02T10:00:54.163Z,2.47
2023-04-02T10:04:00.180Z,1.88
2023-04-02T10:07:06.959Z,1.80
2023-04-02T10:10:37.342Z,2.67
2023-04-02T10:14:11.841Z,2.35
2023-04-02T10:17:25.077Z,1.80
2023-04-02T10:20:33.987Z,2.28
2023-04-02T10:23:41.260Z,1.85
2023-04-02T10:27:22.658Z,1.75
2023-04-02T10:30:55.264Z,1.30
2023-04-02T10:34:05.691Z,1.45
2023-04-02T10:37:44.201Z,2.00
2023-04-02T10:41:28.023Z,2.20
2023-04-02T10:45:17.479Z,1.95
2023-04-02T10:48:34.529Z,1.55
2023-04-02T10:51:46.469Z,1.70
2023-04-02T10:54:54.541Z,1.70
2023-04-02T10:58:06.034Z,1.50
2023-04-02T11:01:18.298Z,1.75
2023-04-02T11:04:31.173Z,1.70
2023-04-02T11:07:50.878Z,1.50
2023-04-02T11:11:15.197Z,1.60
2023-04-02T11:14:29.953Z,1.80
2023-04-02T11:17:35.032Z,1.90
2023-04-02T11:20:57.685Z,2.00
2023-04-02T11:24:03.627Z,1.92
2023-04-02T11:27:11.484Z,1.90
2023-04-02T11:30:15.962Z,2.60
2023-04-02T11:33:42.237Z,2.20
2023-04-02T11:36:55.412Z,2.60
2023-04-02T11:40:10.755Z,2.45
2023-04-02T11:43:33.842Z,2.00
2023-04-02T11:46:45.534Z,2.53
2023-04-02T11:50:01.563Z,2.13
2023-04-02T11:53:12.275Z,2.15
2023-04-02T11:56:49.772Z,2.17
2023-04-02T12:00:47.277Z,2.13
2023-04-02T12:04:41.150Z,2.10
2023-04-02T12:08:28.417Z,2.10
2023-04-02T12:11:40.004Z,2.10
2023-04-02T12:14:46.871Z,1.90
2023-04-02T12:17:51.624Z,2.17
2023-04-02T12:20:57.115Z,2.00
2023-04-02T12:24:03.717Z,1.98
2023-04-02T12:27:22.724Z,2.08
2023-04-02T12:30:27.279Z,2.67
2023-04-02T12:33:38.150Z,2.20
2023-04-02T12:37:02.954Z,1.73
2023-04-02T12:40:18.684Z,2.30
2023-04-02T12:43:32.754Z,2.65
2023-04-02T12:46:39.617Z,1.80
2023-04-02T12:49:45.252Z,1.92
2023-04-02T12:52:55.084Z,1.77
2023-04-02T12:56:00.268Z,1.88
2023-04-02T12:59:04.784Z,1.70
2023-04-02T13:02:32.269Z,2.53
2023-04-02T13:05:48.930Z,1.92
2023-04-02T13:08:54.663Z,2.13
2023-04-02T13:11:59.400Z,1.88
2023-04-02T13:15:21.585Z,2.00
2023-04-02T13:18:26.222Z,1.85
2023-04-02T13:21:32.118Z,2.25
2023-04-02T13:24:36.582Z,1.80
2023-04-02T13:27:41.777Z,1.50
2023-04-02T13:30:46.758Z,1.70
2023-04-02T13:33:51.340Z,1.45
2023-04-02T13:36:57.265Z,2.30
2023-04-02T13:40:04.540Z,1.70
2023-04-02T13:43:18.672Z,1.75
2023-04-02T13:46:26.989Z,2.33
2023-04-02T13:49:32.221Z,1.67
2023-04-02T13:52:37.324Z,1.70
2023-04-02T13:55:42.966Z,1.80
2023-04-02T13:58:47.435Z,2.17
2023-04-02T14:01:57.430Z,1.88
2023-04-02T14:05:13.635Z,1.70
2023-04-02T14:08:49.111Z,1.58
2023-04-02T14:12:01.254Z,1.60
2023-04-02T14:15:35.694Z,1.90
2023-04-02T14:19:04.208Z,2.35
2023-04-02T14:22:56.992Z,2.00
2023-04-02T14:26:58.240Z,1.90
2023-04-02T14:30:36.194Z,1.80
2023-04-02T14:34:21.676Z,1.80
2023-04-02T14:37:33.223Z,1.95
2023-04-02T14:40:50.362Z,1.13
2023-04-02T14:44:02.195Z,1.77
2023-04-02T14:47:41.349Z,1.85
2023-04-02T14:50:45.577Z,1.50
2023-04-02T14:53:52.792Z,1.50
2023-04-02T14:57:38.615Z,1.88
2023-04-02T15:01:31.269Z,1.70
2023-04-02T15:04:45.992Z,1.73
2023-04-02T15:08:05.705Z,1.67
2023-04-02T15:11:21.480Z,1.60
2023-04-02T15:14:35.372Z,1.65
2023-04-02T15:17:40.162Z,1.98
2023-04-02T15:21:29.386Z,1.40
2023-04-02T15:24:52.679Z,1.70
2023-04-02T15:28:12.620Z,1.30
2023-04-02T15:31:20.841Z,1.63
2023-04-02T15:34:56.941Z,1.92
2023-04-02T15:38:29.716Z,1.35
2023-04-02T15:42:02.845Z,1.60
2023-04-02T15:45:57.829Z,1.45
2023-04-02T15:49:36.663Z,1.40
2023-04-02T15:53:06.504Z,1.20
2023-04-02T15:56:51.381Z,1.60
2023-04-02T16:00:30.617Z,1.17
2023-04-02T16:04:19.698Z,1.65
2023-04-02T16:08:18.740Z,1.30
2023-04-02T16:11:26.066Z,1.40
2023-04-02T16:14:32.071Z,1.27
2023-04-02T16:17:43.704Z,1.20
2023-04-02T16:20:51.068Z,1.60
2023-04-02T16:23:55.868Z,1.40
2023-04-02T16:27:18.835Z,1.50
2023-04-02T16:30:48.262Z,1.42
2023-04-02T16:34:07.823Z,1.25
2023-04-02T16:37:17.757Z,1.17
2023-04-02T16:41:04.806Z,1.60
2023-04-02T16:44:55.268Z,1.52
2023-04-02T16:48:11.754Z,1.48
2023-04-02T16:51:38.007Z,1.40
2023-04-02T16:55:12.999Z,1.40
2023-04-02T16:58:53.503Z,1.30
2023-04-02T17:02:39.834Z,1.20
2023-04-02T17:06:09.342Z,1.27
2023-04-02T17:09:25.216Z,1.40
2023-04-02T17:13:04.460Z,1.20
2023-04-02T17:16:12.240Z,1.17
2023-04-02T17:19:18.937Z,1.15
2023-04-02T17:22:23.921Z,1.40
2023-04-02T17:25:37.334Z,1.27
2023-04-02T17:28:43.203Z,1.00
2023-04-02T17:31:50.352Z,1.30
2023-04-02T17:34:57.198Z,0.90
2023-04-02T17:38:39.332Z,1.20
2023-04-02T17:42:16.278Z,1.05
2023-04-02T17:45:50.833Z,1.02
2023-04-02T17:49:03.208Z,1.00
2023-04-02T17:52:46.136Z,0.82
2023-04-02T17:55:56.047Z,0.90
2023-04-02T17:59:30.105Z,0.80
2023-04-02T18:03:26.776Z,0.80
2023-04-02T18:07:26.953Z,0.82
2023-04-02T18:11:13.657Z,0.85
2023-04-02T18:14:55.828Z,0.60
2023-04-02T18:18:34.291Z,0.80
2023-04-02T18:22:02.136Z,0.80
2023-04-02T18:25:34.529Z,0.70
2023-04-02T18:28:51.682Z,0.70
2023-04-02T18:32:29.211Z,0.85
2023-04-02T18:35:35.514Z,1.00
2023-04-02T18:38:46.360Z,0.80
2023-04-02T18:42:40.744Z,0.93
2023-04-02T18:46:12.723Z,0.90
2023-04-02T18:49:38.876Z,0.90
2023-04-02T18:52:44.571Z,0.68
2023-04-02T18:56:11.856Z,0.85
2023-04-02T18:59:39.435Z,0.80
2023-04-02T19:02:50.485Z,0.75
2023-04-02T19:05:56.711Z,0.88
2023-04-02T19:09:31.180Z,0.70
2023-04-02T19:12:36.348Z,1.00
2023-04-02T19:15:52.363Z,0.80
2023-04-02T19:19:15.916Z,0.77
2023-04-02T19:22:37.395Z,1.00
2023-04-02T19:26:03.803Z,0.85
2023-04-02T19:29:11.016Z,0.77
2023-04-02T19:32:53.599Z,0.75
2023-04-02T19:36:15.242Z,1.10
2023-04-02T19:39:25.724Z,0.90
2023-04-02T19:42:44.304Z,0.80
2023-04-02T19:45:49.752Z,1.25
2023-04-02T19:49:09.170Z,1.02
2023-04-02T19:52:13.616Z,1.35
2023-04-02T19:55:18.452Z,1.40
2023-04-02T19:58:35.562Z,1.10
2023-04-02T20:01:40.861Z,1.60
2023-04-02T20:04:45.624Z,0.90
2023-04-02T20:07:50.188Z,1.40
2023-04-02T20:10:58.345Z,1.33
2023-04-02T20:14:03.034Z,0.93
2023-04-02T20:17:07.646Z,1.00
2023-04-02T20:20:13.629Z,1.00
2023-04-02T20:23:18.758Z,1.08
2023-04-02T20:26:23.632Z,1.00
2023-04-02T20:29:30.475Z,1.30
2023-04-02T20:32:37.336Z,1.20
2023-04-02T20:35:42.576Z,1.25
2023-04-02T20:38:47.534Z,0.95
2023-04-02T20:41:52.467Z,1.17
2023-04-02T20:44:57.380Z,1.10
2023-04-02T20:48:02.461Z,1.05
2023-04-02T20:51:09.350Z,1.10
2023-04-02T20:54:13.724Z,1.63
2023-04-02T20:57:21.631Z,1.33
2023-04-02T21:00:25.970Z,1.50
2023-04-02T21:03:30.235Z,1.30
2023-04-02T21:06:38.951Z,1.27
2023-04-02T21:09:43.473Z,1.60
2023-04-02T21:12:48.962Z,1.30
2023-04-02T21:15:53.540Z,1.50
2023-04-02T21:19:05.958Z,1.30
2023-04-02T21:22:10.641Z,1.45
2023-04-02T21:25:15.521Z,1.90
2023-04-02T21:28:19.989Z,1.60
2023-04-02T21:31:31.163Z,1.50
2023-04-02T21:34:35.751Z,1.75
2023-04-02T21:37:40.331Z,2.55
2023-04-02T21:40:44.565Z,2.00
2023-04-02T21:43:50.189Z,1.40
2023-04-02T21:46:54.624Z,1.40
2023-04-02T21:49:59.252Z,1.50
2023-04-02T21:53:03.927Z,1.52
2023-04-02T21:56:21.300Z,1.50
2023-04-02T21:59:26.251Z,1.77
2023-04-02T22:02:30.763Z,1.58
2023-04-02T22:05:35.664Z,1.67
2023-04-02T22:08:42.885Z,1.10
2023-04-02T22:11:54.498Z,1.30
2023-04-02T22:14:59.411Z,1.55
2023-04-02T22:18:04.025Z,1.60
2023-04-02T22:21:09.996Z,2.67
2023-04-02T22:24:22.396Z,1.70
2023-04-02T22:27:26.594Z,1.23
2023-04-02T22:30:33.110Z,1.65
2023-04-02T22:33:38.391Z,1.45
2023-04-02T22:36:42.746Z,1.80
2023-04-02T22:39:47.585Z,1.40
2023-04-02T22:42:52.277Z,1.48
2023-04-02T22:45:56.985Z,1.60
2023-04-02T22:49:01.369Z,1.60
2023-04-02T22:52:06.868Z,1.88
2023-04-02T22:55:17.007Z,1.67
2023-04-02T22:58:22.138Z,1.60
2023-04-02T23:01:34.187Z,1.77
2023-04-02T23:04:38.794Z,1.70
2023-04-02T23:07:43.392Z,1.50
2023-04-02T23:10:48.117Z,1.75
2023-04-02T23:13:55.279Z,1.45
2023-04-02T23:16:59.858Z,1.40
2023-04-02T23:20:09.481Z,1.42
2023-04-02T23:23:13.945Z,1.63
2023-04-02T23:26:30.645Z,1.50
2023-04-02T23:29:35.278Z,1.80
2023-04-02T23:32:39.746Z,2.10
2023-04-02T23:35:44.696Z,1.77
2023-04-02T23:38:55.172Z,2.40
2023-04-02T23:42:00.702Z,1.55
2023-04-02T23:45:05.916Z,1.65
2023-04-02T23:48:10.357Z,2.35
2023-04-02T23:51:14.981Z,2.10
2023-04-02T23:54:19.426Z,1.70
2023-04-02T23:57:23.656Z,1.70
